sensor_id;sensor_type;location;lat;lon;timestamp;temperature;humidity
4739;DHT22;2383;48.632;10.156;2023-04-12T00:04:01;6.00;90.10
4739;DHT22;2383;48.632;10.156;2023-04-12T00:08:07;6.20;89.50
4739;DHT22;2383;48.632;10.156;2023-04-12T00:12:11;6.20;89.40
4739;DHT22;2383;48.632;10.156;2023-04-12T00:16:13;5.90;89.60
4739;DHT22;2383;48.632;10.156;2023-04-12T00:20:16;5.90;89.40
4739;DHT22;2383;48.632;10.156;2023-04-12T00:24:18;6.20;89.40
4739;DHT22;2383;48.632;10.156;2023-04-12T00:28:20;6.30;89.30
4739;DHT22;2383;48.632;10.156;2023-04-12T00:32:25;6.40;89.30
4739;DHT22;2383;48.632;10.156;2023-04-12T00:36:27;6.40;89.20
4739;DHT22;2383;48.632;10.156;2023-04-12T00:40:29;6.40;89.50
4739;DHT22;2383;48.632;10.156;2023-04-12T00:44:32;6.40;90.00
4739;DHT22;2383;48.632;10.156;2023-04-12T00:48:35;6.50;90.20
4739;DHT22;2383;48.632;10.156;2023-04-12T00:52:38;6.40;90.50
4739;DHT22;2383;48.632;10.156;2023-04-12T00:56:40;6.20;90.60
4739;DHT22;2383;48.632;10.156;2023-04-12T01:00:45;6.00;90.90
4739;DHT22;2383;48.632;10.156;2023-04-12T01:04:51;5.80;91.60
4739;DHT22;2383;48.632;10.156;2023-04-12T01:13:30;6.00;91.90
4739;DHT22;2383;48.632;10.156;2023-04-12T01:17:46;6.10;91.90
4739;DHT22;2383;48.632;10.156;2023-04-12T01:30:44;6.50;92.20
4739;DHT22;2383;48.632;10.156;2023-04-12T01:34:47;6.40;92.50
4739;DHT22;2383;48.632;10.156;2023-04-12T01:38:49;6.50;92.60
4739;DHT22;2383;48.632;10.156;2023-04-12T01:43:06;6.50;92.90
4739;DHT22;2383;48.632;10.156;2023-04-12T01:47:08;6.50;92.90
4739;DHT22;2383;48.632;10.156;2023-04-12T01:51:15;6.50;93.10
4739;DHT22;2383;48.632;10.156;2023-04-12T01:55:20;6.50;93.30
4739;DHT22;2383;48.632;10.156;2023-04-12T01:59:27;6.60;93.40
4739;DHT22;2383;48.632;10.156;2023-04-12T02:03:31;6.60;93.40
4739;DHT22;2383;48.632;10.156;2023-04-12T02:07:34;6.60;93.90
4739;DHT22;2383;48.632;10.156;2023-04-12T02:11:36;6.70;94.00
4739;DHT22;2383;48.632;10.156;2023-04-12T02:15:38;6.70;94.40
4739;DHT22;2383;48.632;10.156;2023-04-12T02:19:41;6.80;94.50
4739;DHT22;2383;48.632;10.156;2023-04-12T02:23:44;6.80;94.60
4739;DHT22;2383;48.632;10.156;2023-04-12T02:27:46;6.80;94.70
4739;DHT22;2383;48.632;10.156;2023-04-12T02:31:49;6.90;94.80
4739;DHT22;2383;48.632;10.156;2023-04-12T02:35:51;6.80;94.70
4739;DHT22;2383;48.632;10.156;2023-04-12T02:39:54;6.50;95.40
4739;DHT22;2383;48.632;10.156;2023-04-12T02:43:58;6.60;95.60
4739;DHT22;2383;48.632;10.156;2023-04-12T02:48:01;6.60;95.80
4739;DHT22;2383;48.632;10.156;2023-04-12T02:52:03;6.80;95.80
4739;DHT22;2383;48.632;10.156;2023-04-12T02:56:14;6.90;95.90
4739;DHT22;2383;48.632;10.156;2023-04-12T03:00:23;6.90;95.90
4739;DHT22;2383;48.632;10.156;2023-04-12T03:04:30;6.80;96.00
4739;DHT22;2383;48.632;10.156;2023-04-12T03:08:34;6.90;96.20
4739;DHT22;2383;48.632;10.156;2023-04-12T03:12:37;7.00;96.30
4739;DHT22;2383;48.632;10.156;2023-04-12T03:16:59;7.10;96.30
4739;DHT22;2383;48.632;10.156;2023-04-12T03:21:01;7.20;96.50
4739;DHT22;2383;48.632;10.156;2023-04-12T03:25:05;7.30;96.50
4739;DHT22;2383;48.632;10.156;2023-04-12T03:29:07;7.30;96.50
4739;DHT22;2383;48.632;10.156;2023-04-12T03:33:13;7.20;96.80
4739;DHT22;2383;48.632;10.156;2023-04-12T03:37:16;7.00;97.50
4739;DHT22;2383;48.632;10.156;2023-04-12T03:41:20;7.00;97.70
4739;DHT22;2383;48.632;10.156;2023-04-12T03:45:23;7.30;97.70
4739;DHT22;2383;48.632;10.156;2023-04-12T03:49:28;6.90;97.90
4739;DHT22;2383;48.632;10.156;2023-04-12T03:53:30;6.90;98.30
4739;DHT22;2383;48.632;10.156;2023-04-12T03:57:33;6.70;98.70
4739;DHT22;2383;48.632;10.156;2023-04-12T04:01:37;6.60;99.00
4739;DHT22;2383;48.632;10.156;2023-04-12T04:05:40;6.90;98.80
4739;DHT22;2383;48.632;10.156;2023-04-12T04:09:42;7.20;98.80
4739;DHT22;2383;48.632;10.156;2023-04-12T04:13:45;6.80;99.00
4739;DHT22;2383;48.632;10.156;2023-04-12T04:17:52;6.00;99.90
4739;DHT22;2383;48.632;10.156;2023-04-12T04:21:55;5.70;99.90
4739;DHT22;2383;48.632;10.156;2023-04-12T04:25:57;5.80;99.90
4739;DHT22;2383;48.632;10.156;2023-04-12T04:29:59;5.70;99.90
4739;DHT22;2383;48.632;10.156;2023-04-12T04:34:04;6.40;99.90
4739;DHT22;2383;48.632;10.156;2023-04-12T04:38:09;6.90;99.90
4739;DHT22;2383;48.632;10.156;2023-04-12T04:42:12;7.20;99.90
4739;DHT22;2383;48.632;10.156;2023-04-12T04:46:28;7.30;99.60
4739;DHT22;2383;48.632;10.156;2023-04-12T04:50:31;7.00;99.60
4739;DHT22;2383;48.632;10.156;2023-04-12T04:54:33;7.00;99.90
4739;DHT22;2383;48.632;10.156;2023-04-12T04:58:36;7.10;99.90
4739;DHT22;2383;48.632;10.156;2023-04-12T05:02:40;7.10;99.90
4739;DHT22;2383;48.632;10.156;2023-04-12T05:06:50;7.20;99.90
4739;DHT22;2383;48.632;10.156;2023-04-12T05:10:58;7.20;99.90
4739;DHT22;2383;48.632;10.156;2023-04-12T05:15:03;7.10;99.90
4739;DHT22;2383;48.632;10.156;2023-04-12T05:19:15;6.50;99.90
4739;DHT22;2383;48.632;10.156;2023-04-12T05:23:17;6.40;99.90
4739;DHT22;2383;48.632;10.156;2023-04-12T05:27:18;6.50;99.90
4739;DHT22;2383;48.632;10.156;2023-04-12T05:31:22;6.00;99.90
4739;DHT22;2383;48.632;10.156;2023-04-12T05:35:25;6.30;99.90
4739;DHT22;2383;48.632;10.156;2023-04-12T05:39:32;7.00;99.90
4739;DHT22;2383;48.632;10.156;2023-04-12T05:43:34;6.70;99.90
4739;DHT22;2383;48.632;10.156;2023-04-12T05:47:40;7.10;99.90
4739;DHT22;2383;48.632;10.156;2023-04-12T05:51:42;6.70;99.90
4739;DHT22;2383;48.632;10.156;2023-04-12T05:55:52;7.00;99.90
4739;DHT22;2383;48.632;10.156;2023-04-12T05:59:56;6.90;99.90
4739;DHT22;2383;48.632;10.156;2023-04-12T06:03:58;7.20;99.90
4739;DHT22;2383;48.632;10.156;2023-04-12T06:08:01;7.10;99.90
4739;DHT22;2383;48.632;10.156;2023-04-12T06:12:06;7.10;99.90
4739;DHT22;2383;48.632;10.156;2023-04-12T06:16:09;7.10;99.90
4739;DHT22;2383;48.632;10.156;2023-04-12T06:20:12;7.40;99.90
4739;DHT22;2383;48.632;10.156;2023-04-12T06:24:14;6.70;99.90
4739;DHT22;2383;48.632;10.156;2023-04-12T06:28:16;6.80;99.90
4739;DHT22;2383;48.632;10.156;2023-04-12T06:32:21;6.90;99.90
4739;DHT22;2383;48.632;10.156;2023-04-12T06:36:24;6.80;99.90
4739;DHT22;2383;48.632;10.156;2023-04-12T06:40:26;7.00;99.90
4739;DHT22;2383;48.632;10.156;2023-04-12T06:44:28;7.10;99.90
4739;DHT22;2383;48.632;10.156;2023-04-12T06:48:30;7.30;99.90
4739;DHT22;2383;48.632;10.156;2023-04-12T06:52:32;7.30;99.90
4739;DHT22;2383;48.632;10.156;2023-04-12T06:56:36;6.60;99.90
4739;DHT22;2383;48.632;10.156;2023-04-12T07:00:38;6.70;99.90
4739;DHT22;2383;48.632;10.156;2023-04-12T07:04:40;6.80;99.90
4739;DHT22;2383;48.632;10.156;2023-04-12T07:08:42;6.70;99.90
4739;DHT22;2383;48.632;10.156;2023-04-12T07:12:44;7.00;99.90
4739;DHT22;2383;48.632;10.156;2023-04-12T07:16:46;6.30;99.90
4739;DHT22;2383;48.632;10.156;2023-04-12T07:20:51;6.20;99.90
4739;DHT22;2383;48.632;10.156;2023-04-12T07:24:54;6.30;99.90
4739;DHT22;2383;48.632;10.156;2023-04-12T07:28:56;6.40;99.90
4739;DHT22;2383;48.632;10.156;2023-04-12T07:32:58;6.70;99.90
4739;DHT22;2383;48.632;10.156;2023-04-12T07:37:19;7.20;99.90
4739;DHT22;2383;48.632;10.156;2023-04-12T07:41:21;7.10;99.90
4739;DHT22;2383;48.632;10.156;2023-04-12T07:45:24;6.50;99.90
4739;DHT22;2383;48.632;10.156;2023-04-12T07:49:26;6.50;99.90
4739;DHT22;2383;48.632;10.156;2023-04-12T07:53:28;6.60;99.90
4739;DHT22;2383;48.632;10.156;2023-04-12T07:57:30;6.70;99.90
4739;DHT22;2383;48.632;10.156;2023-04-12T08:01:34;6.60;99.90
4739;DHT22;2383;48.632;10.156;2023-04-12T08:05:37;6.80;99.90
4739;DHT22;2383;48.632;10.156;2023-04-12T08:09:39;6.90;99.90
4739;DHT22;2383;48.632;10.156;2023-04-12T08:13:41;7.20;99.90
4739;DHT22;2383;48.632;10.156;2023-04-12T08:17:43;7.30;99.90
4739;DHT22;2383;48.632;10.156;2023-04-12T08:21:47;7.40;99.90
4739;DHT22;2383;48.632;10.156;2023-04-12T08:25:49;7.90;99.90
4739;DHT22;2383;48.632;10.156;2023-04-12T08:29:51;7.40;99.90
4739;DHT22;2383;48.632;10.156;2023-04-12T08:33:53;6.80;99.90
4739;DHT22;2383;48.632;10.156;2023-04-12T08:37:55;7.10;99.90
4739;DHT22;2383;48.632;10.156;2023-04-12T08:41:57;7.80;99.90
4739;DHT22;2383;48.632;10.156;2023-04-12T08:46:01;7.60;99.90
4739;DHT22;2383;48.632;10.156;2023-04-12T08:50:04;7.00;99.90
4739;DHT22;2383;48.632;10.156;2023-04-12T08:54:09;7.00;99.90
4739;DHT22;2383;48.632;10.156;2023-04-12T08:58:15;7.30;99.90
4739;DHT22;2383;48.632;10.156;2023-04-12T09:02:17;7.30;99.90
4739;DHT22;2383;48.632;10.156;2023-04-12T09:06:19;6.70;99.90
4739;DHT22;2383;48.632;10.156;2023-04-12T09:10:33;7.10;99.90
4739;DHT22;2383;48.632;10.156;2023-04-12T09:14:38;7.30;99.90
4739;DHT22;2383;48.632;10.156;2023-04-12T09:18:47;6.90;99.90
4739;DHT22;2383;48.632;10.156;2023-04-12T09:22:50;6.60;99.90
4739;DHT22;2383;48.632;10.156;2023-04-12T09:31:02;6.80;99.90
4739;DHT22;2383;48.632;10.156;2023-04-12T09:35:05;7.50;99.90
4739;DHT22;2383;48.632;10.156;2023-04-12T09:39:08;7.50;99.90
4739;DHT22;2383;48.632;10.156;2023-04-12T09:43:10;7.20;99.90
4739;DHT22;2383;48.632;10.156;2023-04-12T09:47:12;7.50;99.90
4739;DHT22;2383;48.632;10.156;2023-04-12T09:51:31;7.80;99.90
4739;DHT22;2383;48.632;10.156;2023-04-12T09:55:34;8.00;99.90
4739;DHT22;2383;48.632;10.156;2023-04-12T09:59:38;8.40;99.90
4739;DHT22;2383;48.632;10.156;2023-04-12T10:03:40;8.30;99.90
4739;DHT22;2383;48.632;10.156;2023-04-12T10:07:43;8.80;99.90
4739;DHT22;2383;48.632;10.156;2023-04-12T10:11:46;8.70;99.90
4739;DHT22;2383;48.632;10.156;2023-04-12T10:15:50;8.60;99.90
4739;DHT22;2383;48.632;10.156;2023-04-12T10:19:53;8.80;99.90
4739;DHT22;2383;48.632;10.156;2023-04-12T10:23:56;8.80;99.90
4739;DHT22;2383;48.632;10.156;2023-04-12T10:28:16;9.10;99.90
4739;DHT22;2383;48.632;10.156;2023-04-12T10:32:20;9.20;99.90
4739;DHT22;2383;48.632;10.156;2023-04-12T10:37:02;8.50;99.90
4739;DHT22;2383;48.632;10.156;2023-04-12T10:41:13;8.50;99.90
4739;DHT22;2383;48.632;10.156;2023-04-12T10:49:37;8.90;99.90
4739;DHT22;2383;48.632;10.156;2023-04-12T10:53:39;9.40;99.90
4739;DHT22;2383;48.632;10.156;2023-04-12T10:57:47;9.10;99.90
4739;DHT22;2383;48.632;10.156;2023-04-12T11:02:11;9.70;99.90
4739;DHT22;2383;48.632;10.156;2023-04-12T11:06:18;9.50;99.90
4739;DHT22;2383;48.632;10.156;2023-04-12T11:10:47;9.60;99.90
4739;DHT22;2383;48.632;10.156;2023-04-12T11:14:59;9.60;99.90
4739;DHT22;2383;48.632;10.156;2023-04-12T11:19:10;10.10;99.90
4739;DHT22;2383;48.632;10.156;2023-04-12T11:23:12;9.60;99.90
4739;DHT22;2383;48.632;10.156;2023-04-12T11:27:18;9.50;99.90
4739;DHT22;2383;48.632;10.156;2023-04-12T11:31:20;10.00;99.90
4739;DHT22;2383;48.632;10.156;2023-04-12T11:35:27;9.60;99.90
4739;DHT22;2383;48.632;10.156;2023-04-12T11:39:31;10.20;99.90
4739;DHT22;2383;48.632;10.156;2023-04-12T11:43:35;10.40;99.90
4739;DHT22;2383;48.632;10.156;2023-04-12T11:47:42;10.60;99.90
4739;DHT22;2383;48.632;10.156;2023-04-12T11:51:45;10.40;99.90
4739;DHT22;2383;48.632;10.156;2023-04-12T11:55:53;10.80;99.90
4739;DHT22;2383;48.632;10.156;2023-04-12T11:59:57;10.40;99.90
4739;DHT22;2383;48.632;10.156;2023-04-12T12:04:00;10.30;99.90
4739;DHT22;2383;48.632;10.156;2023-04-12T12:08:04;10.60;99.90
4739;DHT22;2383;48.632;10.156;2023-04-12T12:12:12;10.50;99.90
4739;DHT22;2383;48.632;10.156;2023-04-12T12:16:15;10.50;99.90
4739;DHT22;2383;48.632;10.156;2023-04-12T12:20:21;10.30;99.90
4739;DHT22;2383;48.632;10.156;2023-04-12T12:24:25;10.20;99.90
4739;DHT22;2383;48.632;10.156;2023-04-12T12:28:26;10.50;99.90
4739;DHT22;2383;48.632;10.156;2023-04-12T12:32:37;11.10;99.90
4739;DHT22;2383;48.632;10.156;2023-04-12T12:36:40;11.10;99.90
4739;DHT22;2383;48.632;10.156;2023-04-12T12:40:42;10.30;99.90
4739;DHT22;2383;48.632;10.156;2023-04-12T12:44:44;10.10;99.90
4739;DHT22;2383;48.632;10.156;2023-04-12T12:48:47;10.10;99.90
4739;DHT22;2383;48.632;10.156;2023-04-12T12:52:49;10.60;99.90
4739;DHT22;2383;48.632;10.156;2023-04-12T12:56:51;10.20;99.90
4739;DHT22;2383;48.632;10.156;2023-04-12T13:00:54;10.40;99.90
4739;DHT22;2383;48.632;10.156;2023-04-12T13:04:56;10.50;99.90
4739;DHT22;2383;48.632;10.156;2023-04-12T13:08:59;10.60;99.90
4739;DHT22;2383;48.632;10.156;2023-04-12T13:13:02;10.70;99.90
4739;DHT22;2383;48.632;10.156;2023-04-12T13:17:04;11.00;99.90
4739;DHT22;2383;48.632;10.156;2023-04-12T13:21:06;11.00;99.90
4739;DHT22;2383;48.632;10.156;2023-04-12T13:25:08;10.90;99.90
4739;DHT22;2383;48.632;10.156;2023-04-12T13:29:10;10.60;99.90
4739;DHT22;2383;48.632;10.156;2023-04-12T13:33:12;10.30;99.90
4739;DHT22;2383;48.632;10.156;2023-04-12T13:37:21;10.50;99.90
4739;DHT22;2383;48.632;10.156;2023-04-12T13:41:24;10.60;99.90
4739;DHT22;2383;48.632;10.156;2023-04-12T13:45:26;10.90;99.90
4739;DHT22;2383;48.632;10.156;2023-04-12T13:49:28;11.20;99.90
4739;DHT22;2383;48.632;10.156;2023-04-12T13:53:30;11.00;99.90
4739;DHT22;2383;48.632;10.156;2023-04-12T13:57:33;11.10;99.90
4739;DHT22;2383;48.632;10.156;2023-04-12T14:01:36;11.10;99.90
4739;DHT22;2383;48.632;10.156;2023-04-12T14:05:38;11.20;99.90
4739;DHT22;2383;48.632;10.156;2023-04-12T14:09:40;10.90;99.90
4739;DHT22;2383;48.632;10.156;2023-04-12T14:13:41;10.90;99.70
4739;DHT22;2383;48.632;10.156;2023-04-12T14:17:43;10.50;99.90
4739;DHT22;2383;48.632;10.156;2023-04-12T14:21:46;10.60;99.90
4739;DHT22;2383;48.632;10.156;2023-04-12T14:25:49;11.10;99.90
4739;DHT22;2383;48.632;10.156;2023-04-12T14:29:51;11.50;99.90
4739;DHT22;2383;48.632;10.156;2023-04-12T14:33:53;11.70;99.90
4739;DHT22;2383;48.632;10.156;2023-04-12T14:37:55;12.00;99.90
4739;DHT22;2383;48.632;10.156;2023-04-12T14:41:57;11.70;99.90
4739;DHT22;2383;48.632;10.156;2023-04-12T14:45:59;12.00;99.80
4739;DHT22;2383;48.632;10.156;2023-04-12T14:50:04;11.70;99.60
4739;DHT22;2383;48.632;10.156;2023-04-12T14:54:06;11.70;99.70
4739;DHT22;2383;48.632;10.156;2023-04-12T14:58:08;11.90;99.00
4739;DHT22;2383;48.632;10.156;2023-04-12T15:02:10;12.00;99.60
4739;DHT22;2383;48.632;10.156;2023-04-12T15:06:12;12.10;99.00
4739;DHT22;2383;48.632;10.156;2023-04-12T15:10:15;11.90;99.10
4739;DHT22;2383;48.632;10.156;2023-04-12T15:14:17;11.70;98.60
4739;DHT22;2383;48.632;10.156;2023-04-12T15:18:21;11.80;98.70
4739;DHT22;2383;48.632;10.156;2023-04-12T15:22:23;12.00;99.20
4739;DHT22;2383;48.632;10.156;2023-04-12T15:26:26;11.90;98.50
4739;DHT22;2383;48.632;10.156;2023-04-12T15:30:28;11.30;99.10
4739;DHT22;2383;48.632;10.156;2023-04-12T15:34:32;11.50;98.20
4739;DHT22;2383;48.632;10.156;2023-04-12T15:38:39;11.50;98.90
4739;DHT22;2383;48.632;10.156;2023-04-12T15:42:42;11.70;98.50
4739;DHT22;2383;48.632;10.156;2023-04-12T15:46:44;11.50;99.20
4739;DHT22;2383;48.632;10.156;2023-04-12T15:51:04;11.60;98.20
4739;DHT22;2383;48.632;10.156;2023-04-12T15:55:07;11.50;98.70
4739;DHT22;2383;48.632;10.156;2023-04-12T15:59:12;11.30;99.40
4739;DHT22;2383;48.632;10.156;2023-04-12T16:03:14;11.40;99.10
4739;DHT22;2383;48.632;10.156;2023-04-12T16:07:20;11.20;99.10
4739;DHT22;2383;48.632;10.156;2023-04-12T16:11:22;11.10;99.40
4739;DHT22;2383;48.632;10.156;2023-04-12T16:15:25;10.80;99.90
4739;DHT22;2383;48.632;10.156;2023-04-12T16:19:27;11.20;99.30
4739;DHT22;2383;48.632;10.156;2023-04-12T16:23:28;11.40;99.50
4739;DHT22;2383;48.632;10.156;2023-04-12T16:27:31;11.40;99.90
4739;DHT22;2383;48.632;10.156;2023-04-12T16:31:33;10.60;99.90
4739;DHT22;2383;48.632;10.156;2023-04-12T16:35:35;10.00;99.90
4739;DHT22;2383;48.632;10.156;2023-04-12T16:39:37;9.90;99.90
4739;DHT22;2383;48.632;10.156;2023-04-12T16:43:39;10.00;99.90
4739;DHT22;2383;48.632;10.156;2023-04-12T16:47:45;8.80;99.90
4739;DHT22;2383;48.632;10.156;2023-04-12T16:51:49;7.80;99.90
4739;DHT22;2383;48.632;10.156;2023-04-12T16:55:51;7.20;99.90
4739;DHT22;2383;48.632;10.156;2023-04-12T16:59:53;7.70;99.90
4739;DHT22;2383;48.632;10.156;2023-04-12T17:03:56;7.60;99.90
4739;DHT22;2383;48.632;10.156;2023-04-12T17:07:58;7.50;99.90
4739;DHT22;2383;48.632;10.156;2023-04-12T17:12:00;7.30;99.90
4739;DHT22;2383;48.632;10.156;2023-04-12T17:16:02;8.00;99.90
4739;DHT22;2383;48.632;10.156;2023-04-12T17:20:05;7.90;99.90
4739;DHT22;2383;48.632;10.156;2023-04-12T17:24:10;7.30;99.90
4739;DHT22;2383;48.632;10.156;2023-04-12T17:28:12;7.50;99.90
4739;DHT22;2383;48.632;10.156;2023-04-12T17:32:15;7.80;99.90
4739;DHT22;2383;48.632;10.156;2023-04-12T17:36:18;7.80;99.90
4739;DHT22;2383;48.632;10.156;2023-04-12T17:40:20;7.60;99.90
4739;DHT22;2383;48.632;10.156;2023-04-12T17:44:23;8.00;99.90
4739;DHT22;2383;48.632;10.156;2023-04-12T17:48:25;7.50;99.90
4739;DHT22;2383;48.632;10.156;2023-04-12T17:52:27;7.20;99.90
4739;DHT22;2383;48.632;10.156;2023-04-12T17:56:29;7.60;99.90
4739;DHT22;2383;48.632;10.156;2023-04-12T18:00:31;7.20;99.90
4739;DHT22;2383;48.632;10.156;2023-04-12T18:04:33;7.20;99.90
4739;DHT22;2383;48.632;10.156;2023-04-12T18:08:36;7.40;99.90
4739;DHT22;2383;48.632;10.156;2023-04-12T18:12:38;7.80;99.90
4739;DHT22;2383;48.632;10.156;2023-04-12T18:16:42;7.80;99.90
4739;DHT22;2383;48.632;10.156;2023-04-12T18:20:44;7.80;99.90
4739;DHT22;2383;48.632;10.156;2023-04-12T18:24:46;7.90;99.90
4739;DHT22;2383;48.632;10.156;2023-04-12T18:28:48;7.50;99.90
4739;DHT22;2383;48.632;10.156;2023-04-12T18:32:50;8.20;99.90
4739;DHT22;2383;48.632;10.156;2023-04-12T18:36:52;8.10;99.60
4739;DHT22;2383;48.632;10.156;2023-04-12T18:40:54;8.00;99.90
4739;DHT22;2383;48.632;10.156;2023-04-12T18:44:56;7.40;99.90
4739;DHT22;2383;48.632;10.156;2023-04-12T18:48:59;7.50;99.90
4739;DHT22;2383;48.632;10.156;2023-04-12T18:53:01;7.50;99.40
4739;DHT22;2383;48.632;10.156;2023-04-12T18:57:03;7.70;99.50
4739;DHT22;2383;48.632;10.156;2023-04-12T19:01:05;7.50;99.20
4739;DHT22;2383;48.632;10.156;2023-04-12T19:05:08;7.90;99.30
4739;DHT22;2383;48.632;10.156;2023-04-12T19:09:15;8.20;99.60
4739;DHT22;2383;48.632;10.156;2023-04-12T19:13:18;8.40;99.30
4739;DHT22;2383;48.632;10.156;2023-04-12T19:17:20;8.50;98.50
4739;DHT22;2383;48.632;10.156;2023-04-12T19:21:28;8.70;99.00
4739;DHT22;2383;48.632;10.156;2023-04-12T19:25:30;8.80;99.00
4739;DHT22;2383;48.632;10.156;2023-04-12T19:29:33;8.90;99.00
4739;DHT22;2383;48.632;10.156;2023-04-12T19:33:35;8.90;98.90
4739;DHT22;2383;48.632;10.156;2023-04-12T19:37:37;8.90;99.10
4739;DHT22;2383;48.632;10.156;2023-04-12T19:41:40;8.90;99.10
4739;DHT22;2383;48.632;10.156;2023-04-12T19:45:42;8.60;99.50
4739;DHT22;2383;48.632;10.156;2023-04-12T19:49:45;8.50;99.60
4739;DHT22;2383;48.632;10.156;2023-04-12T19:53:48;8.50;99.80
4739;DHT22;2383;48.632;10.156;2023-04-12T19:57:51;8.20;99.90
4739;DHT22;2383;48.632;10.156;2023-04-12T20:01:53;8.50;99.90
4739;DHT22;2383;48.632;10.156;2023-04-12T20:05:56;8.60;99.60
4739;DHT22;2383;48.632;10.156;2023-04-12T20:10:00;8.40;99.40
4739;DHT22;2383;48.632;10.156;2023-04-12T20:14:05;8.30;99.50
4739;DHT22;2383;48.632;10.156;2023-04-12T20:18:08;7.80;99.90
4739;DHT22;2383;48.632;10.156;2023-04-12T20:22:13;7.70;99.90
4739;DHT22;2383;48.632;10.156;2023-04-12T20:26:16;7.80;99.90
4739;DHT22;2383;48.632;10.156;2023-04-12T20:30:19;7.70;99.90
4739;DHT22;2383;48.632;10.156;2023-04-12T20:34:22;7.80;99.90
4739;DHT22;2383;48.632;10.156;2023-04-12T20:38:26;7.70;99.90
4739;DHT22;2383;48.632;10.156;2023-04-12T20:42:30;7.50;99.90
4739;DHT22;2383;48.632;10.156;2023-04-12T20:46:32;8.00;99.90
4739;DHT22;2383;48.632;10.156;2023-04-12T20:50:37;8.40;99.40
4739;DHT22;2383;48.632;10.156;2023-04-12T20:54:42;8.60;99.20
4739;DHT22;2383;48.632;10.156;2023-04-12T20:58:46;8.60;99.20
4739;DHT22;2383;48.632;10.156;2023-04-12T21:02:50;8.60;99.10
4739;DHT22;2383;48.632;10.156;2023-04-12T21:06:53;8.40;99.20
4739;DHT22;2383;48.632;10.156;2023-04-12T21:10:59;8.30;99.40
4739;DHT22;2383;48.632;10.156;2023-04-12T21:15:01;8.30;99.10
4739;DHT22;2383;48.632;10.156;2023-04-12T21:19:04;7.90;99.00
4739;DHT22;2383;48.632;10.156;2023-04-12T21:23:06;7.80;99.00
4739;DHT22;2383;48.632;10.156;2023-04-12T21:27:08;7.70;98.90
4739;DHT22;2383;48.632;10.156;2023-04-12T21:31:10;7.70;99.20
4739;DHT22;2383;48.632;10.156;2023-04-12T21:35:13;7.80;99.10
4739;DHT22;2383;48.632;10.156;2023-04-12T21:39:16;7.70;98.90
4739;DHT22;2383;48.632;10.156;2023-04-12T21:43:19;7.80;99.20
4739;DHT22;2383;48.632;10.156;2023-04-12T21:47:21;7.90;99.30
4739;DHT22;2383;48.632;10.156;2023-04-12T21:51:23;8.10;99.00
4739;DHT22;2383;48.632;10.156;2023-04-12T21:55:26;7.70;99.20
4739;DHT22;2383;48.632;10.156;2023-04-12T21:59:29;7.70;99.40
4739;DHT22;2383;48.632;10.156;2023-04-12T22:03:31;7.50;99.50
4739;DHT22;2383;48.632;10.156;2023-04-12T22:07:33;7.90;99.20
4739;DHT22;2383;48.632;10.156;2023-04-12T22:11:35;8.00;99.20
4739;DHT22;2383;48.632;10.156;2023-04-12T22:15:37;8.10;99.10
4739;DHT22;2383;48.632;10.156;2023-04-12T22:19:39;7.90;99.20
4739;DHT22;2383;48.632;10.156;2023-04-12T22:23:42;8.10;98.70
4739;DHT22;2383;48.632;10.156;2023-04-12T22:27:45;7.90;98.70
4739;DHT22;2383;48.632;10.156;2023-04-12T22:31:48;6.00;99.30
4739;DHT22;2383;48.632;10.156;2023-04-12T22:35:50;5.20;99.90
4739;DHT22;2383;48.632;10.156;2023-04-12T22:39:52;4.90;99.90
4739;DHT22;2383;48.632;10.156;2023-04-12T22:43:55;4.10;99.90
4739;DHT22;2383;48.632;10.156;2023-04-12T22:48:03;3.80;99.90
4739;DHT22;2383;48.632;10.156;2023-04-12T22:52:07;3.50;99.90
4739;DHT22;2383;48.632;10.156;2023-04-12T22:56:09;4.00;99.90
4739;DHT22;2383;48.632;10.156;2023-04-12T23:00:12;4.70;99.90
4739;DHT22;2383;48.632;10.156;2023-04-12T23:04:17;5.50;99.90
4739;DHT22;2383;48.632;10.156;2023-04-12T23:08:19;5.90;99.90
4739;DHT22;2383;48.632;10.156;2023-04-12T23:12:21;6.20;99.90
4739;DHT22;2383;48.632;10.156;2023-04-12T23:16:24;6.20;99.90
4739;DHT22;2383;48.632;10.156;2023-04-12T23:20:26;6.40;99.90
4739;DHT22;2383;48.632;10.156;2023-04-12T23:24:30;6.30;99.90
4739;DHT22;2383;48.632;10.156;2023-04-12T23:28:32;6.50;99.90
4739;DHT22;2383;48.632;10.156;2023-04-12T23:32:35;6.40;99.90
4739;DHT22;2383;48.632;10.156;2023-04-12T23:36:38;6.20;99.90
4739;DHT22;2383;48.632;10.156;2023-04-12T23:40:41;6.50;99.90
4739;DHT22;2383;48.632;10.156;2023-04-12T23:44:44;6.60;99.90
4739;DHT22;2383;48.632;10.156;2023-04-12T23:48:47;6.70;99.90
4739;DHT22;2383;48.632;10.156;2023-04-12T23:52:49;6.70;99.90
4739;DHT22;2383;48.632;10.156;2023-04-12T23:56:52;6.70;99.90
